sensor_id;sensor_type;location;lat;lon;timestamp;P1;durP1;ratioP1;P2;durP2;ratioP2
2896;SDS011;1458;49.728;9.228;2023-05-23T00:01:51;0.10;;;0.10;;
2896;SDS011;1458;49.728;9.228;2023-05-23T00:04:24;0.10;;;0.10;;
2896;SDS011;1458;49.728;9.228;2023-05-23T00:06:51;0.10;;;0.10;;
2896;SDS011;1458;49.728;9.228;2023-05-23T00:09:19;0.10;;;0.10;;
2896;SDS011;1458;49.728;9.228;2023-05-23T00:11:47;0.10;;;0.10;;
2896;SDS011;1458;49.728;9.228;2023-05-23T00:14:15;0.10;;;0.10;;
2896;SDS011;1458;49.728;9.228;2023-05-23T00:16:43;0.10;;;0.10;;
2896;SDS011;1458;49.728;9.228;2023-05-23T00:19:13;0.10;;;0.10;;
2896;SDS011;1458;49.728;9.228;2023-05-23T00:21:44;0.10;;;0.10;;
2896;SDS011;1458;49.728;9.228;2023-05-23T00:24:14;0.10;;;0.10;;
2896;SDS011;1458;49.728;9.228;2023-05-23T00:26:44;0.10;;;0.10;;
2896;SDS011;1458;49.728;9.228;2023-05-23T00:29:13;0.10;;;0.10;;
2896;SDS011;1458;49.728;9.228;2023-05-23T00:31:41;0.10;;;0.10;;
2896;SDS011;1458;49.728;9.228;2023-05-23T00:34:10;0.10;;;0.10;;
2896;SDS011;1458;49.728;9.228;2023-05-23T00:36:38;0.10;;;0.10;;
2896;SDS011;1458;49.728;9.228;2023-05-23T00:39:09;0.10;;;0.10;;
2896;SDS011;1458;49.728;9.228;2023-05-23T00:41:43;0.10;;;0.10;;
2896;SDS011;1458;49.728;9.228;2023-05-23T00:44:12;0.10;;;0.10;;
2896;SDS011;1458;49.728;9.228;2023-05-23T00:46:40;0.10;;;0.10;;
2896;SDS011;1458;49.728;9.228;2023-05-23T00:49:10;0.10;;;0.10;;
2896;SDS011;1458;49.728;9.228;2023-05-23T00:51:38;0.10;;;0.10;;
2896;SDS011;1458;49.728;9.228;2023-05-23T00:54:07;0.10;;;0.10;;
2896;SDS011;1458;49.728;9.228;2023-05-23T00:56:37;0.10;;;0.10;;
2896;SDS011;1458;49.728;9.228;2023-05-23T00:59:05;0.20;;;0.20;;
2896;SDS011;1458;49.728;9.228;2023-05-23T01:01:34;0.13;;;0.13;;
2896;SDS011;1458;49.728;9.228;2023-05-23T01:04:02;0.10;;;0.10;;
2896;SDS011;1458;49.728;9.228;2023-05-23T01:06:31;0.10;;;0.10;;
2896;SDS011;1458;49.728;9.228;2023-05-23T01:08:58;0.10;;;0.10;;
2896;SDS011;1458;49.728;9.228;2023-05-23T01:11:29;0.10;;;0.10;;
2896;SDS011;1458;49.728;9.228;2023-05-23T01:14:04;0.10;;;0.10;;
2896;SDS011;1458;49.728;9.228;2023-05-23T01:16:39;0.10;;;0.10;;
2896;SDS011;1458;49.728;9.228;2023-05-23T01:19:22;0.10;;;0.10;;
2896;SDS011;1458;49.728;9.228;2023-05-23T01:22:20;0.10;;;0.10;;
2896;SDS011;1458;49.728;9.228;2023-05-23T01:25:09;0.10;;;0.10;;
2896;SDS011;1458;49.728;9.228;2023-05-23T01:27:55;0.10;;;0.10;;
2896;SDS011;1458;49.728;9.228;2023-05-23T01:30:28;0.10;;;0.10;;
2896;SDS011;1458;49.728;9.228;2023-05-23T01:32:59;0.10;;;0.10;;
2896;SDS011;1458;49.728;9.228;2023-05-23T01:35:28;0.10;;;0.10;;
2896;SDS011;1458;49.728;9.228;2023-05-23T01:37:56;0.10;;;0.10;;
2896;SDS011;1458;49.728;9.228;2023-05-23T01:40:24;0.10;;;0.10;;
2896;SDS011;1458;49.728;9.228;2023-05-23T01:42:52;0.10;;;0.10;;
2896;SDS011;1458;49.728;9.228;2023-05-23T01:45:23;0.10;;;0.10;;
2896;SDS011;1458;49.728;9.228;2023-05-23T01:47:53;0.10;;;0.10;;
2896;SDS011;1458;49.728;9.228;2023-05-23T01:50:22;0.10;;;0.10;;
2896;SDS011;1458;49.728;9.228;2023-05-23T01:52:51;0.10;;;0.10;;
2896;SDS011;1458;49.728;9.228;2023-05-23T01:55:22;0.10;;;0.10;;
2896;SDS011;1458;49.728;9.228;2023-05-23T01:57:52;0.10;;;0.10;;
2896;SDS011;1458;49.728;9.228;2023-05-23T02:00:23;0.10;;;0.10;;
2896;SDS011;1458;49.728;9.228;2023-05-23T02:02:51;0.10;;;0.10;;
2896;SDS011;1458;49.728;9.228;2023-05-23T02:05:20;0.10;;;0.10;;
2896;SDS011;1458;49.728;9.228;2023-05-23T02:07:47;0.10;;;0.10;;
2896;SDS011;1458;49.728;9.228;2023-05-23T02:10:16;0.10;;;0.10;;
2896;SDS011;1458;49.728;9.228;2023-05-23T02:12:45;0.10;;;0.10;;
2896;SDS011;1458;49.728;9.228;2023-05-23T02:15:14;0.10;;;0.10;;
2896;SDS011;1458;49.728;9.228;2023-05-23T02:17:42;0.10;;;0.10;;
2896;SDS011;1458;49.728;9.228;2023-05-23T02:20:12;0.10;;;0.10;;
2896;SDS011;1458;49.728;9.228;2023-05-23T02:22:43;0.00;;;0.00;;
2896;SDS011;1458;49.728;9.228;2023-05-23T02:25:12;0.10;;;0.10;;
2896;SDS011;1458;49.728;9.228;2023-05-23T02:27:41;0.10;;;0.10;;
2896;SDS011;1458;49.728;9.228;2023-05-23T02:30:09;0.10;;;0.10;;
2896;SDS011;1458;49.728;9.228;2023-05-23T02:32:40;0.00;;;0.00;;
2896;SDS011;1458;49.728;9.228;2023-05-23T02:35:07;0.10;;;0.10;;
2896;SDS011;1458;49.728;9.228;2023-05-23T02:37:35;0.10;;;0.10;;
2896;SDS011;1458;49.728;9.228;2023-05-23T02:40:04;0.10;;;0.10;;
2896;SDS011;1458;49.728;9.228;2023-05-23T02:42:34;0.10;;;0.10;;
2896;SDS011;1458;49.728;9.228;2023-05-23T02:45:02;0.17;;;0.17;;
2896;SDS011;1458;49.728;9.228;2023-05-23T02:47:31;0.10;;;0.10;;
2896;SDS011;1458;49.728;9.228;2023-05-23T02:50:00;0.10;;;0.10;;
2896;SDS011;1458;49.728;9.228;2023-05-23T02:52:30;0.10;;;0.10;;
2896;SDS011;1458;49.728;9.228;2023-05-23T02:54:58;0.10;;;0.10;;
2896;SDS011;1458;49.728;9.228;2023-05-23T02:57:29;0.10;;;0.10;;
2896;SDS011;1458;49.728;9.228;2023-05-23T02:59:57;0.10;;;0.10;;
2896;SDS011;1458;49.728;9.228;2023-05-23T03:02:25;0.10;;;0.10;;
2896;SDS011;1458;49.728;9.228;2023-05-23T03:04:53;0.10;;;0.10;;
2896;SDS011;1458;49.728;9.228;2023-05-23T03:07:23;0.10;;;0.10;;
2896;SDS011;1458;49.728;9.228;2023-05-23T03:09:53;0.10;;;0.10;;
2896;SDS011;1458;49.728;9.228;2023-05-23T03:12:21;0.10;;;0.10;;
2896;SDS011;1458;49.728;9.228;2023-05-23T03:14:49;0.10;;;0.10;;
2896;SDS011;1458;49.728;9.228;2023-05-23T03:17:16;0.10;;;0.10;;
2896;SDS011;1458;49.728;9.228;2023-05-23T03:19:44;0.10;;;0.10;;
2896;SDS011;1458;49.728;9.228;2023-05-23T03:22:12;0.10;;;0.10;;
2896;SDS011;1458;49.728;9.228;2023-05-23T03:24:44;0.10;;;0.10;;
2896;SDS011;1458;49.728;9.228;2023-05-23T03:27:12;0.10;;;0.10;;
2896;SDS011;1458;49.728;9.228;2023-05-23T03:29:42;0.10;;;0.10;;
2896;SDS011;1458;49.728;9.228;2023-05-23T03:32:11;0.10;;;0.10;;
2896;SDS011;1458;49.728;9.228;2023-05-23T03:34:38;0.10;;;0.10;;
2896;SDS011;1458;49.728;9.228;2023-05-23T03:37:06;0.10;;;0.10;;
2896;SDS011;1458;49.728;9.228;2023-05-23T03:39:34;0.10;;;0.10;;
2896;SDS011;1458;49.728;9.228;2023-05-23T03:42:04;0.10;;;0.10;;
2896;SDS011;1458;49.728;9.228;2023-05-23T03:44:32;0.10;;;0.10;;
2896;SDS011;1458;49.728;9.228;2023-05-23T03:47:02;0.10;;;0.10;;
2896;SDS011;1458;49.728;9.228;2023-05-23T03:49:30;0.10;;;0.10;;
2896;SDS011;1458;49.728;9.228;2023-05-23T03:51:58;0.10;;;0.10;;
2896;SDS011;1458;49.728;9.228;2023-05-23T03:54:27;0.10;;;0.10;;
2896;SDS011;1458;49.728;9.228;2023-05-23T03:56:55;0.10;;;0.10;;
2896;SDS011;1458;49.728;9.228;2023-05-23T03:59:24;0.10;;;0.10;;
2896;SDS011;1458;49.728;9.228;2023-05-23T04:01:52;0.10;;;0.10;;
2896;SDS011;1458;49.728;9.228;2023-05-23T04:04:23;0.10;;;0.10;;
2896;SDS011;1458;49.728;9.228;2023-05-23T04:06:53;0.10;;;0.10;;
2896;SDS011;1458;49.728;9.228;2023-05-23T04:09:22;0.10;;;0.10;;
2896;SDS011;1458;49.728;9.228;2023-05-23T04:11:51;0.10;;;0.10;;
2896;SDS011;1458;49.728;9.228;2023-05-23T04:14:21;0.10;;;0.10;;
2896;SDS011;1458;49.728;9.228;2023-05-23T04:16:51;0.10;;;0.10;;
2896;SDS011;1458;49.728;9.228;2023-05-23T04:19:20;0.10;;;0.10;;
2896;SDS011;1458;49.728;9.228;2023-05-23T04:21:47;0.10;;;0.10;;
2896;SDS011;1458;49.728;9.228;2023-05-23T04:24:16;0.10;;;0.10;;
2896;SDS011;1458;49.728;9.228;2023-05-23T04:26:44;0.10;;;0.10;;
2896;SDS011;1458;49.728;9.228;2023-05-23T04:29:11;0.10;;;0.10;;
2896;SDS011;1458;49.728;9.228;2023-05-23T04:31:40;0.10;;;0.10;;
2896;SDS011;1458;49.728;9.228;2023-05-23T04:34:12;0.10;;;0.10;;
2896;SDS011;1458;49.728;9.228;2023-05-23T04:36:41;0.10;;;0.10;;
2896;SDS011;1458;49.728;9.228;2023-05-23T04:39:10;0.10;;;0.10;;
2896;SDS011;1458;49.728;9.228;2023-05-23T04:41:45;0.17;;;0.17;;
2896;SDS011;1458;49.728;9.228;2023-05-23T04:44:38;0.10;;;0.10;;
2896;SDS011;1458;49.728;9.228;2023-05-23T04:47:12;0.10;;;0.10;;
2896;SDS011;1458;49.728;9.228;2023-05-23T04:50:14;0.10;;;0.10;;
2896;SDS011;1458;49.728;9.228;2023-05-23T04:52:47;0.20;;;0.20;;
2896;SDS011;1458;49.728;9.228;2023-05-23T04:55:26;0.10;;;0.10;;
2896;SDS011;1458;49.728;9.228;2023-05-23T04:57:54;0.20;;;0.20;;
2896;SDS011;1458;49.728;9.228;2023-05-23T05:00:22;0.10;;;0.10;;
2896;SDS011;1458;49.728;9.228;2023-05-23T05:02:52;0.17;;;0.17;;
2896;SDS011;1458;49.728;9.228;2023-05-23T05:05:24;0.10;;;0.10;;
2896;SDS011;1458;49.728;9.228;2023-05-23T05:07:52;0.10;;;0.10;;
2896;SDS011;1458;49.728;9.228;2023-05-23T05:10:20;0.20;;;0.20;;
2896;SDS011;1458;49.728;9.228;2023-05-23T05:12:49;0.20;;;0.20;;
2896;SDS011;1458;49.728;9.228;2023-05-23T05:15:25;0.20;;;0.20;;
2896;SDS011;1458;49.728;9.228;2023-05-23T05:17:58;0.20;;;0.20;;
2896;SDS011;1458;49.728;9.228;2023-05-23T05:20:33;0.20;;;0.20;;
2896;SDS011;1458;49.728;9.228;2023-05-23T05:23:01;0.20;;;0.20;;
2896;SDS011;1458;49.728;9.228;2023-05-23T05:25:48;0.20;;;0.20;;
2896;SDS011;1458;49.728;9.228;2023-05-23T05:28:32;0.10;;;0.10;;
2896;SDS011;1458;49.728;9.228;2023-05-23T05:31:06;0.20;;;0.20;;
2896;SDS011;1458;49.728;9.228;2023-05-23T05:33:35;0.20;;;0.20;;
2896;SDS011;1458;49.728;9.228;2023-05-23T05:36:12;0.20;;;0.20;;
2896;SDS011;1458;49.728;9.228;2023-05-23T05:38:41;0.20;;;0.20;;
2896;SDS011;1458;49.728;9.228;2023-05-23T05:41:09;0.30;;;0.30;;
2896;SDS011;1458;49.728;9.228;2023-05-23T05:43:47;0.20;;;0.20;;
2896;SDS011;1458;49.728;9.228;2023-05-23T05:46:20;0.10;;;0.10;;
2896;SDS011;1458;49.728;9.228;2023-05-23T05:48:49;0.20;;;0.20;;
2896;SDS011;1458;49.728;9.228;2023-05-23T05:51:19;0.20;;;0.20;;
2896;SDS011;1458;49.728;9.228;2023-05-23T05:53:47;0.30;;;0.30;;
2896;SDS011;1458;49.728;9.228;2023-05-23T05:56:19;0.20;;;0.20;;
2896;SDS011;1458;49.728;9.228;2023-05-23T05:58:47;0.20;;;0.20;;
2896;SDS011;1458;49.728;9.228;2023-05-23T06:01:18;0.20;;;0.20;;
2896;SDS011;1458;49.728;9.228;2023-05-23T06:03:49;0.20;;;0.20;;
2896;SDS011;1458;49.728;9.228;2023-05-23T06:06:21;0.30;;;0.30;;
2896;SDS011;1458;49.728;9.228;2023-05-23T06:08:49;0.40;;;0.40;;
2896;SDS011;1458;49.728;9.228;2023-05-23T06:11:17;0.47;;;0.47;;
2896;SDS011;1458;49.728;9.228;2023-05-23T06:13:56;0.50;;;0.50;;
2896;SDS011;1458;49.728;9.228;2023-05-23T06:16:26;0.40;;;0.40;;
2896;SDS011;1458;49.728;9.228;2023-05-23T06:18:56;0.60;;;0.60;;
2896;SDS011;1458;49.728;9.228;2023-05-23T06:21:29;0.60;;;0.60;;
2896;SDS011;1458;49.728;9.228;2023-05-23T06:24:06;0.70;;;0.70;;
2896;SDS011;1458;49.728;9.228;2023-05-23T06:26:34;0.73;;;0.73;;
2896;SDS011;1458;49.728;9.228;2023-05-23T06:29:07;0.90;;;0.90;;
2896;SDS011;1458;49.728;9.228;2023-05-23T06:31:35;0.70;;;0.70;;
2896;SDS011;1458;49.728;9.228;2023-05-23T06:34:06;0.80;;;0.80;;
2896;SDS011;1458;49.728;9.228;2023-05-23T06:36:35;0.90;;;0.90;;
2896;SDS011;1458;49.728;9.228;2023-05-23T06:39:04;0.90;;;0.90;;
2896;SDS011;1458;49.728;9.228;2023-05-23T06:41:34;0.93;;;0.93;;
2896;SDS011;1458;49.728;9.228;2023-05-23T06:44:03;0.80;;;0.80;;
2896;SDS011;1458;49.728;9.228;2023-05-23T06:46:31;0.90;;;0.90;;
2896;SDS011;1458;49.728;9.228;2023-05-23T06:49:00;1.10;;;1.10;;
2896;SDS011;1458;49.728;9.228;2023-05-23T06:51:28;1.50;;;1.50;;
2896;SDS011;1458;49.728;9.228;2023-05-23T06:53:57;1.70;;;1.70;;
2896;SDS011;1458;49.728;9.228;2023-05-23T06:56:25;1.77;;;1.77;;
2896;SDS011;1458;49.728;9.228;2023-05-23T06:58:56;2.00;;;2.00;;
2896;SDS011;1458;49.728;9.228;2023-05-23T07:01:25;2.00;;;2.00;;
2896;SDS011;1458;49.728;9.228;2023-05-23T07:03:53;2.00;;;2.00;;
2896;SDS011;1458;49.728;9.228;2023-05-23T07:06:22;1.90;;;1.90;;
2896;SDS011;1458;49.728;9.228;2023-05-23T07:08:52;2.30;;;2.30;;
2896;SDS011;1458;49.728;9.228;2023-05-23T07:11:22;1.70;;;1.70;;
2896;SDS011;1458;49.728;9.228;2023-05-23T07:13:54;1.77;;;1.77;;
2896;SDS011;1458;49.728;9.228;2023-05-23T07:16:35;2.00;;;2.00;;
2896;SDS011;1458;49.728;9.228;2023-05-23T07:19:07;1.50;;;1.50;;
2896;SDS011;1458;49.728;9.228;2023-05-23T07:21:42;1.50;;;1.50;;
2896;SDS011;1458;49.728;9.228;2023-05-23T07:24:14;2.00;;;2.00;;
2896;SDS011;1458;49.728;9.228;2023-05-23T07:26:46;2.00;;;2.00;;
2896;SDS011;1458;49.728;9.228;2023-05-23T07:29:19;2.10;;;2.10;;
2896;SDS011;1458;49.728;9.228;2023-05-23T07:31:51;2.10;;;2.10;;
2896;SDS011;1458;49.728;9.228;2023-05-23T07:34:23;2.40;;;2.40;;
2896;SDS011;1458;49.728;9.228;2023-05-23T07:36:55;2.40;;;2.40;;
2896;SDS011;1458;49.728;9.228;2023-05-23T07:39:25;2.77;;;2.77;;
2896;SDS011;1458;49.728;9.228;2023-05-23T07:41:57;2.50;;;2.50;;
2896;SDS011;1458;49.728;9.228;2023-05-23T07:44:25;2.90;;;2.90;;
2896;SDS011;1458;49.728;9.228;2023-05-23T07:46:54;3.10;;;3.10;;
2896;SDS011;1458;49.728;9.228;2023-05-23T07:49:23;3.10;;;3.10;;
2896;SDS011;1458;49.728;9.228;2023-05-23T07:51:54;3.00;;;3.00;;
2896;SDS011;1458;49.728;9.228;2023-05-23T07:54:22;3.43;;;3.43;;
2896;SDS011;1458;49.728;9.228;2023-05-23T07:56:54;3.33;;;3.33;;
2896;SDS011;1458;49.728;9.228;2023-05-23T07:59:24;3.93;;;3.93;;
2896;SDS011;1458;49.728;9.228;2023-05-23T08:01:57;4.10;;;4.10;;
2896;SDS011;1458;49.728;9.228;2023-05-23T08:04:26;4.60;;;4.60;;
2896;SDS011;1458;49.728;9.228;2023-05-23T08:06:54;4.70;;;4.70;;
2896;SDS011;1458;49.728;9.228;2023-05-23T08:09:29;5.13;;;5.13;;
2896;SDS011;1458;49.728;9.228;2023-05-23T08:11:59;4.73;;;4.73;;
2896;SDS011;1458;49.728;9.228;2023-05-23T08:14:29;5.27;;;5.27;;
2896;SDS011;1458;49.728;9.228;2023-05-23T08:17:11;5.70;;;5.70;;
2896;SDS011;1458;49.728;9.228;2023-05-23T08:19:40;6.60;;;6.60;;
2896;SDS011;1458;49.728;9.228;2023-05-23T08:22:08;7.77;;;7.67;;
2896;SDS011;1458;49.728;9.228;2023-05-23T08:24:36;8.03;;;7.93;;
2896;SDS011;1458;49.728;9.228;2023-05-23T08:27:04;8.10;;;8.00;;
2896;SDS011;1458;49.728;9.228;2023-05-23T08:29:36;8.20;;;8.10;;
2896;SDS011;1458;49.728;9.228;2023-05-23T08:32:04;8.80;;;8.60;;
2896;SDS011;1458;49.728;9.228;2023-05-23T08:34:33;9.50;;;9.30;;
2896;SDS011;1458;49.728;9.228;2023-05-23T08:37:00;9.67;;;9.47;;
2896;SDS011;1458;49.728;9.228;2023-05-23T08:39:28;9.77;;;9.57;;
2896;SDS011;1458;49.728;9.228;2023-05-23T08:42:23;9.93;;;9.73;;
2896;SDS011;1458;49.728;9.228;2023-05-23T08:44:55;10.27;;;10.07;;
2896;SDS011;1458;49.728;9.228;2023-05-23T08:47:23;10.33;;;10.10;;
2896;SDS011;1458;49.728;9.228;2023-05-23T08:50:00;9.90;;;9.70;;
2896;SDS011;1458;49.728;9.228;2023-05-23T08:52:30;9.83;;;9.63;;
2896;SDS011;1458;49.728;9.228;2023-05-23T08:55:05;8.90;;;8.70;;
2896;SDS011;1458;49.728;9.228;2023-05-23T08:57:37;9.40;;;9.20;;
2896;SDS011;1458;49.728;9.228;2023-05-23T09:00:24;8.90;;;8.70;;
2896;SDS011;1458;49.728;9.228;2023-05-23T09:02:53;9.33;;;9.13;;
2896;SDS011;1458;49.728;9.228;2023-05-23T09:05:49;9.23;;;9.03;;
2896;SDS011;1458;49.728;9.228;2023-05-23T09:08:21;9.20;;;9.00;;
2896;SDS011;1458;49.728;9.228;2023-05-23T09:10:57;9.27;;;9.07;;
2896;SDS011;1458;49.728;9.228;2023-05-23T09:13:28;8.70;;;8.50;;
2896;SDS011;1458;49.728;9.228;2023-05-23T09:16:02;9.00;;;8.80;;
2896;SDS011;1458;49.728;9.228;2023-05-23T09:18:40;8.73;;;8.57;;
2896;SDS011;1458;49.728;9.228;2023-05-23T09:21:19;8.70;;;8.50;;
2896;SDS011;1458;49.728;9.228;2023-05-23T09:24:05;8.50;;;8.40;;
2896;SDS011;1458;49.728;9.228;2023-05-23T09:26:33;9.00;;;8.80;;
2896;SDS011;1458;49.728;9.228;2023-05-23T09:29:03;8.40;;;8.30;;
2896;SDS011;1458;49.728;9.228;2023-05-23T09:31:36;8.83;;;8.63;;
2896;SDS011;1458;49.728;9.228;2023-05-23T09:34:22;8.90;;;8.70;;
2896;SDS011;1458;49.728;9.228;2023-05-23T09:36:57;9.00;;;8.80;;
2896;SDS011;1458;49.728;9.228;2023-05-23T09:39:25;9.33;;;9.13;;
2896;SDS011;1458;49.728;9.228;2023-05-23T09:42:00;8.90;;;8.70;;
2896;SDS011;1458;49.728;9.228;2023-05-23T09:44:34;8.80;;;8.60;;
2896;SDS011;1458;49.728;9.228;2023-05-23T09:47:14;8.50;;;8.40;;
2896;SDS011;1458;49.728;9.228;2023-05-23T09:49:49;8.20;;;8.10;;
2896;SDS011;1458;49.728;9.228;2023-05-23T09:52:19;8.50;;;8.40;;
2896;SDS011;1458;49.728;9.228;2023-05-23T09:54:47;8.97;;;8.77;;
2896;SDS011;1458;49.728;9.228;2023-05-23T09:57:17;9.00;;;8.80;;
2896;SDS011;1458;49.728;9.228;2023-05-23T10:00:08;9.07;;;8.87;;
2896;SDS011;1458;49.728;9.228;2023-05-23T10:02:52;8.63;;;8.50;;
2896;SDS011;1458;49.728;9.228;2023-05-23T10:05:32;9.20;;;9.00;;
2896;SDS011;1458;49.728;9.228;2023-05-23T10:08:06;8.70;;;8.53;;
2896;SDS011;1458;49.728;9.228;2023-05-23T10:14:18;8.70;;;8.50;;
2896;SDS011;1458;49.728;9.228;2023-05-23T10:16:58;9.00;;;8.80;;
2896;SDS011;1458;49.728;9.228;2023-05-23T10:19:51;9.10;;;8.90;;
2896;SDS011;1458;49.728;9.228;2023-05-23T10:22:26;10.10;;;9.90;;
2896;SDS011;1458;49.728;9.228;2023-05-23T10:25:05;9.50;;;9.30;;
2896;SDS011;1458;49.728;9.228;2023-05-23T10:27:39;9.60;;;9.40;;
2896;SDS011;1458;49.728;9.228;2023-05-23T10:30:08;9.20;;;9.00;;
2896;SDS011;1458;49.728;9.228;2023-05-23T10:32:37;9.20;;;9.00;;
2896;SDS011;1458;49.728;9.228;2023-05-23T10:35:09;9.30;;;9.10;;
2896;SDS011;1458;49.728;9.228;2023-05-23T10:37:47;9.43;;;9.23;;
2896;SDS011;1458;49.728;9.228;2023-05-23T10:40:26;9.00;;;8.80;;
2896;SDS011;1458;49.728;9.228;2023-05-23T10:43:13;9.07;;;8.87;;
2896;SDS011;1458;49.728;9.228;2023-05-23T10:45:50;8.83;;;8.63;;
2896;SDS011;1458;49.728;9.228;2023-05-23T10:48:19;9.20;;;9.00;;
2896;SDS011;1458;49.728;9.228;2023-05-23T10:51:05;9.67;;;9.47;;
2896;SDS011;1458;49.728;9.228;2023-05-23T10:53:40;10.00;;;9.80;;
2896;SDS011;1458;49.728;9.228;2023-05-23T10:56:10;9.37;;;9.17;;
2896;SDS011;1458;49.728;9.228;2023-05-23T10:58:50;9.70;;;9.50;;
2896;SDS011;1458;49.728;9.228;2023-05-23T11:01:20;9.90;;;9.70;;
2896;SDS011;1458;49.728;9.228;2023-05-23T11:03:49;9.93;;;9.73;;
2896;SDS011;1458;49.728;9.228;2023-05-23T11:06:43;10.10;;;9.90;;
2896;SDS011;1458;49.728;9.228;2023-05-23T11:09:14;9.80;;;9.60;;
2896;SDS011;1458;49.728;9.228;2023-05-23T11:11:53;9.87;;;9.67;;
2896;SDS011;1458;49.728;9.228;2023-05-23T11:14:30;9.90;;;9.70;;
2896;SDS011;1458;49.728;9.228;2023-05-23T11:17:14;9.30;;;9.10;;
2896;SDS011;1458;49.728;9.228;2023-05-23T11:19:57;8.90;;;8.70;;
2896;SDS011;1458;49.728;9.228;2023-05-23T11:22:34;8.40;;;8.30;;
2896;SDS011;1458;49.728;9.228;2023-05-23T11:25:11;8.20;;;8.10;;
2896;SDS011;1458;49.728;9.228;2023-05-23T11:27:45;7.73;;;7.63;;
2896;SDS011;1458;49.728;9.228;2023-05-23T11:30:15;7.10;;;7.00;;
2896;SDS011;1458;49.728;9.228;2023-05-23T11:32:50;7.10;;;7.00;;
2896;SDS011;1458;49.728;9.228;2023-05-23T11:35:22;7.13;;;7.03;;
2896;SDS011;1458;49.728;9.228;2023-05-23T11:37:54;6.70;;;6.60;;
2896;SDS011;1458;49.728;9.228;2023-05-23T11:40:39;6.73;;;6.63;;
2896;SDS011;1458;49.728;9.228;2023-05-23T11:43:14;6.27;;;6.27;;
2896;SDS011;1458;49.728;9.228;2023-05-23T11:46:06;7.07;;;6.97;;
2896;SDS011;1458;49.728;9.228;2023-05-23T11:48:44;7.70;;;7.60;;
2896;SDS011;1458;49.728;9.228;2023-05-23T11:51:16;7.80;;;7.70;;
2896;SDS011;1458;49.728;9.228;2023-05-23T11:54:01;8.63;;;8.53;;
2896;SDS011;1458;49.728;9.228;2023-05-23T11:56:39;8.10;;;8.00;;
2896;SDS011;1458;49.728;9.228;2023-05-23T11:59:20;8.63;;;8.50;;
2896;SDS011;1458;49.728;9.228;2023-05-23T12:02:18;9.40;;;9.20;;
2896;SDS011;1458;49.728;9.228;2023-05-23T12:04:54;9.70;;;9.50;;
2896;SDS011;1458;49.728;9.228;2023-05-23T12:07:27;10.50;;;10.20;;
2896;SDS011;1458;49.728;9.228;2023-05-23T12:10:11;10.80;;;10.50;;
2896;SDS011;1458;49.728;9.228;2023-05-23T12:12:57;10.20;;;10.00;;
2896;SDS011;1458;49.728;9.228;2023-05-23T12:15:33;10.47;;;10.17;;
2896;SDS011;1458;49.728;9.228;2023-05-23T12:18:32;10.97;;;10.67;;
2896;SDS011;1458;49.728;9.228;2023-05-23T12:29:38;9.67;;;9.47;;
2896;SDS011;1458;49.728;9.228;2023-05-23T12:32:47;10.23;;;10.03;;
2896;SDS011;1458;49.728;9.228;2023-05-23T12:40:42;10.23;;;10.03;;
2896;SDS011;1458;49.728;9.228;2023-05-23T12:48:31;10.30;;;10.10;;
2896;SDS011;1458;49.728;9.228;2023-05-23T12:59:17;10.17;;;9.97;;
2896;SDS011;1458;49.728;9.228;2023-05-23T13:06:38;9.83;;;9.63;;
2896;SDS011;1458;49.728;9.228;2023-05-23T13:27:17;10.07;;;9.87;;
2896;SDS011;1458;49.728;9.228;2023-05-23T13:54:50;11.30;;;11.00;;
2896;SDS011;1458;49.728;9.228;2023-05-23T13:57:19;11.30;;;11.00;;
2896;SDS011;1458;49.728;9.228;2023-05-23T14:00:48;11.00;;;10.70;;
2896;SDS011;1458;49.728;9.228;2023-05-23T14:03:19;10.80;;;10.50;;
2896;SDS011;1458;49.728;9.228;2023-05-23T14:10:03;10.77;;;10.47;;
2896;SDS011;1458;49.728;9.228;2023-05-23T14:13:04;10.27;;;10.07;;
2896;SDS011;1458;49.728;9.228;2023-05-23T14:15:59;9.87;;;9.67;;
2896;SDS011;1458;49.728;9.228;2023-05-23T14:26:12;9.50;;;9.30;;
2896;SDS011;1458;49.728;9.228;2023-05-23T14:28:50;9.70;;;9.50;;
2896;SDS011;1458;49.728;9.228;2023-05-23T14:31:39;9.57;;;9.37;;
2896;SDS011;1458;49.728;9.228;2023-05-23T14:34:55;10.00;;;9.80;;
2896;SDS011;1458;49.728;9.228;2023-05-23T14:37:32;9.50;;;9.30;;
2896;SDS011;1458;49.728;9.228;2023-05-23T14:40:06;9.80;;;9.60;;
2896;SDS011;1458;49.728;9.228;2023-05-23T14:42:40;9.40;;;9.20;;
2896;SDS011;1458;49.728;9.228;2023-05-23T14:45:08;9.10;;;8.90;;
2896;SDS011;1458;49.728;9.228;2023-05-23T14:47:37;8.90;;;8.70;;
2896;SDS011;1458;49.728;9.228;2023-05-23T14:50:06;9.53;;;9.33;;
2896;SDS011;1458;49.728;9.228;2023-05-23T14:52:35;9.70;;;9.50;;
2896;SDS011;1458;49.728;9.228;2023-05-23T14:55:03;9.00;;;8.80;;
2896;SDS011;1458;49.728;9.228;2023-05-23T14:57:36;9.53;;;9.33;;
2896;SDS011;1458;49.728;9.228;2023-05-23T15:00:05;9.03;;;8.83;;
2896;SDS011;1458;49.728;9.228;2023-05-23T15:02:37;9.50;;;9.30;;
2896;SDS011;1458;49.728;9.228;2023-05-23T15:05:06;9.33;;;9.13;;
2896;SDS011;1458;49.728;9.228;2023-05-23T15:07:35;9.40;;;9.20;;
2896;SDS011;1458;49.728;9.228;2023-05-23T15:10:06;9.30;;;9.10;;
2896;SDS011;1458;49.728;9.228;2023-05-23T15:12:34;9.00;;;8.80;;
2896;SDS011;1458;49.728;9.228;2023-05-23T15:15:02;8.97;;;8.77;;
2896;SDS011;1458;49.728;9.228;2023-05-23T15:17:35;8.67;;;8.50;;
2896;SDS011;1458;49.728;9.228;2023-05-23T15:20:03;8.47;;;8.37;;
2896;SDS011;1458;49.728;9.228;2023-05-23T15:22:38;8.30;;;8.20;;
2896;SDS011;1458;49.728;9.228;2023-05-23T15:25:07;8.73;;;8.53;;
2896;SDS011;1458;49.728;9.228;2023-05-23T15:27:35;8.20;;;8.10;;
2896;SDS011;1458;49.728;9.228;2023-05-23T15:30:06;8.00;;;7.90;;
2896;SDS011;1458;49.728;9.228;2023-05-23T15:32:34;9.00;;;8.80;;
2896;SDS011;1458;49.728;9.228;2023-05-23T15:35:03;8.70;;;8.50;;
2896;SDS011;1458;49.728;9.228;2023-05-23T15:37:38;8.73;;;8.53;;
2896;SDS011;1458;49.728;9.228;2023-05-23T15:40:08;8.47;;;8.37;;
2896;SDS011;1458;49.728;9.228;2023-05-23T15:45:40;8.87;;;8.67;;
2896;SDS011;1458;49.728;9.228;2023-05-23T15:48:08;8.80;;;8.60;;
2896;SDS011;1458;49.728;9.228;2023-05-23T15:50:37;8.90;;;8.70;;
2896;SDS011;1458;49.728;9.228;2023-05-23T15:53:04;8.30;;;8.20;;
2896;SDS011;1458;49.728;9.228;2023-05-23T15:55:32;8.03;;;7.93;;
2896;SDS011;1458;49.728;9.228;2023-05-23T15:58:00;8.43;;;8.33;;
2896;SDS011;1458;49.728;9.228;2023-05-23T16:00:28;7.90;;;7.80;;
2896;SDS011;1458;49.728;9.228;2023-05-23T16:02:56;8.00;;;7.90;;
2896;SDS011;1458;49.728;9.228;2023-05-23T16:05:24;8.20;;;8.10;;
2896;SDS011;1458;49.728;9.228;2023-05-23T16:07:51;7.93;;;7.83;;
2896;SDS011;1458;49.728;9.228;2023-05-23T16:10:19;8.03;;;7.93;;
2896;SDS011;1458;49.728;9.228;2023-05-23T16:12:47;7.37;;;7.27;;
2896;SDS011;1458;49.728;9.228;2023-05-23T16:15:14;7.70;;;7.60;;
2896;SDS011;1458;49.728;9.228;2023-05-23T16:17:43;7.70;;;7.60;;
2896;SDS011;1458;49.728;9.228;2023-05-23T16:20:13;7.50;;;7.40;;
2896;SDS011;1458;49.728;9.228;2023-05-23T16:22:40;7.00;;;6.90;;
2896;SDS011;1458;49.728;9.228;2023-05-23T16:25:09;7.30;;;7.20;;
2896;SDS011;1458;49.728;9.228;2023-05-23T16:27:37;7.30;;;7.20;;
2896;SDS011;1458;49.728;9.228;2023-05-23T16:30:05;7.40;;;7.30;;
2896;SDS011;1458;49.728;9.228;2023-05-23T16:32:34;7.30;;;7.20;;
2896;SDS011;1458;49.728;9.228;2023-05-23T16:35:01;7.40;;;7.30;;
2896;SDS011;1458;49.728;9.228;2023-05-23T16:37:30;7.90;;;7.80;;
2896;SDS011;1458;49.728;9.228;2023-05-23T16:39:58;7.90;;;7.80;;
2896;SDS011;1458;49.728;9.228;2023-05-23T16:42:25;7.80;;;7.70;;
2896;SDS011;1458;49.728;9.228;2023-05-23T16:44:52;8.00;;;7.90;;
2896;SDS011;1458;49.728;9.228;2023-05-23T16:47:20;8.00;;;7.90;;
2896;SDS011;1458;49.728;9.228;2023-05-23T16:49:47;7.90;;;7.80;;
2896;SDS011;1458;49.728;9.228;2023-05-23T16:52:15;7.80;;;7.70;;
2896;SDS011;1458;49.728;9.228;2023-05-23T16:54:44;7.63;;;7.53;;
2896;SDS011;1458;49.728;9.228;2023-05-23T16:57:11;7.70;;;7.60;;
2896;SDS011;1458;49.728;9.228;2023-05-23T16:59:39;7.60;;;7.50;;
2896;SDS011;1458;49.728;9.228;2023-05-23T17:02:06;7.60;;;7.50;;
2896;SDS011;1458;49.728;9.228;2023-05-23T17:04:36;7.50;;;7.40;;
2896;SDS011;1458;49.728;9.228;2023-05-23T17:07:04;8.00;;;7.90;;
2896;SDS011;1458;49.728;9.228;2023-05-23T17:09:33;7.30;;;7.20;;
2896;SDS011;1458;49.728;9.228;2023-05-23T17:12:03;7.30;;;7.20;;
2896;SDS011;1458;49.728;9.228;2023-05-23T17:14:31;7.20;;;7.10;;
2896;SDS011;1458;49.728;9.228;2023-05-23T17:16:58;7.10;;;7.00;;
2896;SDS011;1458;49.728;9.228;2023-05-23T17:19:27;7.20;;;7.10;;
2896;SDS011;1458;49.728;9.228;2023-05-23T17:21:55;7.17;;;7.07;;